createdAt,value
2018-07-23T00:07:52.761Z,18.46
2018-07-23T00:17:50.433Z,18.52
2018-07-23T00:27:46.714Z,18.49
2018-07-23T00:37:39.996Z,18.37
2018-07-23T00:47:37.793Z,18.42
2018-07-23T00:57:33.991Z,18.32
2018-07-23T01:07:26.420Z,18.25
2018-07-23T01:17:24.962Z,18.27
2018-07-23T01:27:19.759Z,17.98
2018-07-23T01:37:18.158Z,17.82
2018-07-23T01:47:16.525Z,17.60
2018-07-23T01:57:12.821Z,17.57
2018-07-23T02:07:07.545Z,17.53
2018-07-23T02:17:02.474Z,17.46
2018-07-23T02:27:01.359Z,17.47
2018-07-23T02:36:57.021Z,17.47
2018-07-23T02:46:53.767Z,17.43
2018-07-23T02:56:49.749Z,17.30
2018-07-23T03:06:44.490Z,17.44
2018-07-23T03:16:43.557Z,17.54
2018-07-23T03:26:40.911Z,17.50
2018-07-23T03:36:39.059Z,17.48
2018-07-23T03:46:37.978Z,17.44
2018-07-23T03:56:32.154Z,17.58
2018-07-23T04:06:27.696Z,17.60
2018-07-23T04:16:26.611Z,17.46
2018-07-23T04:26:23.080Z,17.53
2018-07-23T04:36:18.651Z,17.55
2018-07-23T04:46:16.920Z,17.67
2018-07-23T04:56:15.246Z,17.71
2018-07-23T05:06:12.774Z,17.64
2018-07-23T05:16:06.490Z,17.64
2018-07-23T05:26:00.142Z,17.55
2018-07-23T05:35:56.138Z,17.73
2018-07-23T05:45:51.624Z,17.79
2018-07-23T05:55:48.292Z,17.95
2018-07-23T06:05:44.654Z,18.09
2018-07-23T06:15:35.449Z,18.16
2018-07-23T06:25:29.601Z,18.49
2018-07-23T06:35:25.914Z,18.55
2018-07-23T06:45:22.509Z,18.58
2018-07-23T06:55:11.115Z,18.64
2018-07-23T07:05:08.982Z,18.83
2018-07-23T07:14:58.803Z,18.97
2018-07-23T07:24:46.648Z,18.90
2018-07-23T07:34:44.901Z,18.90
2018-07-23T07:44:43.352Z,19.14
2018-07-23T07:54:40.645Z,19.33
2018-07-23T08:04:37.068Z,19.58
2018-07-23T08:14:34.282Z,20.20
2018-07-23T08:24:29.901Z,20.59
2018-07-23T08:34:29.112Z,20.51
2018-07-23T08:44:17.123Z,20.66
2018-07-23T08:54:08.943Z,21.06
2018-07-23T09:04:06.152Z,21.04
2018-07-23T09:13:47.305Z,20.94
2018-07-23T09:23:26.879Z,20.90
2018-07-23T09:33:23.151Z,20.68
2018-07-23T09:43:20.204Z,20.03
2018-07-23T09:53:04.329Z,19.80
2018-07-23T10:03:01.379Z,19.42
2018-07-23T10:12:56.494Z,19.55
2018-07-23T10:22:52.355Z,19.82
2018-07-23T10:32:49.882Z,20.00
2018-07-23T10:42:47.182Z,19.97
2018-07-23T10:52:41.084Z,20.08
2018-07-23T11:02:33.799Z,20.24
2018-07-23T11:12:31.874Z,20.57
2018-07-23T11:22:11.984Z,21.31
2018-07-23T11:31:55.057Z,21.04
2018-07-23T11:41:34.441Z,20.99
2018-07-23T11:51:21.991Z,21.11
2018-07-23T12:01:18.923Z,21.11
2018-07-23T12:11:17.374Z,20.94
2018-07-23T12:21:13.544Z,21.12
2018-07-23T12:31:08.874Z,21.02
2018-07-23T12:41:07.290Z,20.84
2018-07-23T12:51:03.361Z,20.64
2018-07-23T13:01:00.330Z,20.72
2018-07-23T13:10:58.835Z,20.47
2018-07-23T13:20:48.872Z,20.49
2018-07-23T13:30:46.382Z,20.34
2018-07-23T13:40:45.278Z,20.69
2018-07-23T13:50:41.120Z,21.20
2018-07-23T14:00:38.093Z,22.97
2018-07-23T14:10:39.182Z,23.45
2018-07-23T14:20:38.257Z,23.64
2018-07-23T14:30:35.683Z,23.50
2018-07-23T14:40:35.711Z,24.52
2018-07-23T14:50:34.723Z,25.22
2018-07-23T15:00:32.612Z,27.32
2018-07-23T15:10:31.028Z,29.09
2018-07-23T15:20:27.787Z,27.89
2018-07-23T15:30:23.026Z,26.34
2018-07-23T15:40:19.121Z,25.70
2018-07-23T15:50:09.805Z,25.56
2018-07-23T16:00:06.749Z,25.16
2018-07-23T16:10:04.581Z,24.98
2018-07-23T16:20:00.135Z,24.67
2018-07-23T16:29:54.840Z,24.52
2018-07-23T16:39:53.268Z,24.56
2018-07-23T16:49:50.530Z,24.53
2018-07-23T16:59:48.074Z,24.17
2018-07-23T17:09:40.482Z,23.45
2018-07-23T17:19:36.675Z,23.12
2018-07-23T17:29:32.818Z,22.84
2018-07-23T17:39:26.576Z,22.13
2018-07-23T17:49:21.291Z,21.76
2018-07-23T17:59:18.258Z,21.38
2018-07-23T18:09:15.570Z,20.99
2018-07-23T18:19:13.535Z,20.59
2018-07-23T18:29:06.443Z,20.23
2018-07-23T18:39:02.151Z,19.83
2018-07-23T18:48:58.698Z,19.50
2018-07-23T18:58:56.913Z,19.17
2018-07-23T19:08:52.996Z,18.95
2018-07-23T19:18:50.109Z,18.68
2018-07-23T19:28:45.236Z,18.37
2018-07-23T19:38:42.712Z,18.16
2018-07-23T19:48:39.963Z,18.13
2018-07-23T19:58:31.884Z,17.92
2018-07-23T20:08:26.817Z,17.58
2018-07-23T20:18:24.604Z,17.48
2018-07-23T20:28:19.492Z,17.44
2018-07-23T20:38:10.716Z,17.35
2018-07-23T20:48:03.936Z,17.18
2018-07-23T20:58:00.739Z,17.00
2018-07-23T21:07:59.404Z,17.38
2018-07-23T21:17:51.400Z,17.23
2018-07-23T21:27:49.377Z,17.55
2018-07-23T21:37:47.348Z,17.67
2018-07-23T21:47:40.902Z,17.46
2018-07-23T21:57:34.264Z,17.82
2018-07-23T22:07:30.553Z,17.64
2018-07-23T22:17:26.469Z,17.20
2018-07-23T22:27:22.952Z,16.98
2018-07-23T22:37:19.066Z,16.82
2018-07-23T22:47:13.923Z,17.47
2018-07-23T22:57:08.063Z,19.01
2018-07-23T23:07:05.841Z,18.55
2018-07-23T23:16:59.109Z,18.95
2018-07-23T23:26:52.313Z,19.23
2018-07-23T23:36:41.823Z,20.23
2018-07-23T23:46:40.105Z,19.83
2018-07-23T23:56:37.200Z,19.58
